Rysy — C6ZA3 — position and weather

sailwx.info

Track history (hours):
 
Tides and Currents Weather Stations Pressure Air Temp Water Temp Dewpoint Dewpoint Depression Visibility Wind Speed Wind Dir Waves Ship Positions

Rysy

Last reported at 2016-Jun-24 04:33 UTC. Time now 2016-Jun-25 10:37 UTC.
Position N 49°48' W 003°23'.

Length 229 m; draft 12.8 m.

Type: Cargo ship. MMSI: 311051200.

Date/timePositionNaut miles runAvg speedWind from/ knotsBaromVisibWave heightAir tempDewpointWater temp
2016-Jun-24 04:33N 49°48' W 003°23'1413.7
2016-Jun-24 03:33N 49°55' W 003°04'1413.9
2016-Jun-24 02:33N 50°00' W 002°44'4011.5
2016-Jun-23 23:06N 50°11' W 001°45'14 8.6
2016-Jun-23 21:30N 50°15' W 001°24'9 8.9
2016-Jun-23 20:32N 50°17' W 001°11'1411.1
2016-Jun-23 19:14N 50°21' W 000°49'1512.9
2016-Jun-23 18:05N 50°25' W 000°27'713.5
2016-Jun-23 17:33N 50°27' W 000°16'1413.6
2016-Jun-23 16:33N 50°31' E 000°04'1313.1
2016-Jun-23 15:33N 50°34' E 000°24'3711.6
2016-Jun-23 12:21N 50°56' E 001°12'911.2
2016-Jun-23 11:33N 51°02' E 001°23'1313.3
2016-Jun-23 10:33N 51°09' E 001°40'1514.6
2016-Jun-23 09:34N 51°22' E 001°52'1413.7
2016-Jun-23 08:34N 51°33' E 002°05'1313.0
2016-Jun-23 07:33N 51°43' E 002°19'11611.4
2016-Jun-22 21:21N 53°30' E 003°34'5711.2
2016-Jun-22 16:15N 54°13' E 004°36'1211.9
2016-Jun-22 15:17N 54°23' E 004°47'21311.8
2016-Jun-21 21:15N 57°19' E 008°20'910.5
2016-Jun-21 20:25N 57°23' E 008°34'2010.4
2016-Jun-21 18:32N 57°36' E 009°02'1010.1
2016-Jun-21 17:34N 57°40' E 009°19'1010.3
2016-Jun-21 16:34N 57°43' E 009°37'1110.7
2016-Jun-21 15:34N 57°46' E 009°56'1110.6
2016-Jun-21 14:33N 57°48' E 010°16'1010.1
2016-Jun-21 13:33N 57°48' E 010°35'7 7.1
2016-Jun-21 12:34N 57°45' E 010°47'5 4.3
2016-Jun-21 11:24N 57°41' E 010°41'0 0.0
2016-Jun-21 09:12N 57°41' E 010°40'0 0.0
2016-Jun-21 06:33N 57°41' E 010°40'0 0.0
2016-Jun-21 04:27N 57°41' E 010°40'0 0.1
2016-Jun-21 03:33N 57°41' E 010°41'5 5.4
2016-Jun-21 02:34N 57°41' E 010°50'1110.8
2016-Jun-21 01:34N 57°36' E 011°09'1211.6
2016-Jun-21 00:33N 57°28' E 011°25'1211.8
2016-Jun-20 23:34N 57°18' E 011°33'1212.0
2016-Jun-20 22:33N 57°06' E 011°40'1111.4
2016-Jun-20 21:33N 56°55' E 011°47'1111.1
2016-Jun-20 20:33N 56°45' E 011°53'1211.9
2016-Jun-20 19:32N 56°34' E 011°41'2510.7
2016-Jun-20 17:12N 56°19' E 011°06'6511.5
2016-Jun-20 11:33N 55°14' E 011°06'1211.6
2016-Jun-20 10:33N 55°03' E 010°60'1211.9
2016-Jun-20 09:33N 54°53' E 010°50'1211.8
2016-Jun-20 08:34N 54°41' E 010°47'9 9.5
2016-Jun-20 07:33N 54°36' E 011°01'1010.0
2016-Jun-20 06:33N 54°34' E 011°18'1110.7
2016-Jun-20 05:34N 54°29' E 011°34'1010.1
2016-Jun-20 04:33N 54°26' E 011°51'1110.6
2016-Jun-20 03:33N 54°26' E 012°09'1111.0
2016-Jun-20 02:33N 54°36' E 012°17'1111.0
2016-Jun-20 01:33N 54°42' E 012°32'2210.8
2016-Jun-19 23:32N 54°46' E 013°10'1311.4
2016-Jun-19 22:26N 54°46' E 013°32'4210.8
2016-Jun-19 18:33N 54°12' E 014°12'10 9.9
2016-Jun-19 17:33N 54°02' E 014°15'7 7.1
2016-Jun-19 16:32N 53°55' E 014°17'0 0.0
2016-Jun-19 15:32N 53°55' E 014°17'0 0.0
2016-Jun-19 14:32N 53°55' E 014°17'0 0.0
2016-Jun-19 13:32N 53°55' E 014°17'0 0.0
2016-Jun-19 12:32N 53°55' E 014°17'0 0.0
2016-Jun-19 11:32N 53°55' E 014°17'0 0.0
2016-Jun-19 10:32N 53°55' E 014°17'0 0.0
2016-Jun-19 09:32N 53°55' E 014°17'0 0.0
2016-Jun-19 08:32N 53°55' E 014°17'0 0.0
2016-Jun-19 07:32N 53°55' E 014°17'0 0.0
2016-Jun-19 06:29N 53°55' E 014°17'0 0.0
2016-Jun-19 05:32N 53°55' E 014°17'0 0.0
2016-Jun-19 04:32N 53°55' E 014°17'0 0.0
2016-Jun-19 03:32N 53°55' E 014°17'0 0.0
2016-Jun-19 02:32N 53°55' E 014°17'0 0.0
2016-Jun-19 01:32N 53°55' E 014°17'0 0.0
2016-Jun-19 00:32N 53°55' E 014°17'0 0.0
2016-Jun-18 23:32N 53°55' E 014°17'0 0.0
2016-Jun-18 22:32N 53°55' E 014°17'0 0.0
2016-Jun-18 21:32N 53°55' E 014°17'0 0.0
2016-Jun-18 20:32N 53°55' E 014°17'0 0.0
2016-Jun-18 19:32N 53°55' E 014°17'0 0.0
2016-Jun-18 18:32N 53°55' E 014°17'0 0.0
2016-Jun-18 17:32N 53°55' E 014°17'0 0.0
2016-Jun-18 16:32N 53°55' E 014°17'0 0.0
2016-Jun-18 15:32N 53°55' E 014°17'0 0.0
2016-Jun-18 14:32N 53°55' E 014°17'0 0.0
2016-Jun-18 13:32N 53°55' E 014°17'0 0.0
2016-Jun-18 12:32N 53°55' E 014°17'0 0.0
2016-Jun-18 11:32N 53°55' E 014°17'0 0.0
2016-Jun-18 10:32N 53°55' E 014°17'0 0.0
2016-Jun-18 09:32N 53°55' E 014°17'0 0.0
2016-Jun-18 08:32N 53°55' E 014°17'0 0.0
2016-Jun-18 07:32N 53°55' E 014°17'0 0.0
2016-Jun-18 06:32N 53°55' E 014°17'0 0.0
2016-Jun-18 05:32N 53°55' E 014°17'0 0.0
2016-Jun-18 04:29N 53°55' E 014°17'0 0.0
2016-Jun-18 03:32N 53°55' E 014°17'0 0.0
2016-Jun-18 02:32N 53°55' E 014°17'0 0.0
2016-Jun-18 01:32N 53°55' E 014°17'0 0.0
2016-Jun-18 00:32N 53°55' E 014°17'0 0.0
2016-Jun-17 23:32N 53°55' E 014°17'0 0.0
2016-Jun-17 22:32N 53°55' E 014°17'0 0.0
2016-Jun-17 21:32N 53°55' E 014°17'0 0.0
2016-Jun-17 20:32N 53°55' E 014°17'0 0.0
2016-Jun-17 19:32N 53°55' E 014°17'0 0.0
2016-Jun-17 18:29N 53°55' E 014°17'0 0.0
2016-Jun-17 17:32N 53°55' E 014°17'0 0.0
2016-Jun-17 16:32N 53°55' E 014°17'0 0.0
2016-Jun-17 15:32N 53°55' E 014°17'0 0.0
2016-Jun-17 14:32N 53°55' E 014°17'0 0.0
2016-Jun-17 13:32N 53°55' E 014°17'0 0.0
2016-Jun-17 12:32N 53°55' E 014°17'0 0.0
2016-Jun-17 11:32N 53°55' E 014°17'0 0.0
2016-Jun-17 10:32N 53°55' E 014°17'0 0.0
2016-Jun-17 09:32N 53°55' E 014°17'0 0.0
2016-Jun-17 08:32N 53°55' E 014°17'0 0.0
2016-Jun-17 07:32N 53°55' E 014°17'0 0.0
2016-Jun-17 06:32N 53°55' E 014°17'0 0.0
2016-Jun-17 05:32N 53°55' E 014°17'0 0.0
2016-Jun-17 04:32N 53°55' E 014°17'0 0.0
2016-Jun-17 03:32N 53°55' E 014°17'0 0.0
2016-Jun-17 02:32N 53°55' E 014°17'0 0.0
2016-Jun-17 01:32N 53°55' E 014°17'0 0.0
2016-Jun-17 00:32N 53°55' E 014°17'0 0.0
2016-Jun-16 23:32N 53°55' E 014°17'0 0.0
2016-Jun-16 22:32N 53°55' E 014°17'0 0.0
2016-Jun-16 21:32N 53°55' E 014°17'0 0.0
2016-Jun-16 20:32N 53°55' E 014°17'0 0.0
2016-Jun-16 19:32N 53°55' E 014°17'0 0.0
2016-Jun-16 18:32N 53°55' E 014°17'0 0.0
2016-Jun-16 17:32N 53°55' E 014°17'0 0.0
2016-Jun-16 16:32N 53°55' E 014°17'0 0.0
2016-Jun-16 15:32N 53°55' E 014°17'0 0.0
2016-Jun-16 14:32N 53°55' E 014°17'0 0.0
2016-Jun-16 13:32N 53°55' E 014°17'0 0.0
2016-Jun-16 12:32N 53°55' E 014°17'0 0.0
2016-Jun-16 11:32N 53°55' E 014°17'0 0.0
2016-Jun-16 10:32N 53°55' E 014°17'0 0.0
2016-Jun-16 09:32N 53°55' E 014°17'0 0.0
2016-Jun-16 08:32N 53°55' E 014°17'0 0.0
2016-Jun-16 07:32N 53°55' E 014°17'0 0.0
2016-Jun-16 06:32N 53°55' E 014°17'0 0.0
2016-Jun-16 05:32N 53°55' E 014°17'0 0.0
2016-Jun-16 04:32N 53°55' E 014°17'0 0.0
2016-Jun-16 03:32N 53°55' E 014°17'0 0.0
2016-Jun-16 02:32N 53°55' E 014°17'0 0.0
2016-Jun-16 01:32N 53°55' E 014°17'0 0.0
2016-Jun-16 00:32N 53°55' E 014°17'0 0.0
2016-Jun-15 23:32N 53°55' E 014°17'0 0.0
2016-Jun-15 22:32N 53°55' E 014°17'0 0.0
2016-Jun-15 21:32N 53°55' E 014°17'0 0.0
2016-Jun-15 20:32N 53°55' E 014°17'0 0.0
2016-Jun-15 19:32N 53°55' E 014°17'0 0.0
2016-Jun-15 18:32N 53°55' E 014°17'0 0.0
2016-Jun-15 17:32N 53°55' E 014°17'0 0.0
2016-Jun-15 16:32N 53°55' E 014°17'0 0.0
2016-Jun-15 15:32N 53°55' E 014°17'0 0.0
2016-Jun-15 14:32N 53°55' E 014°17'0 0.0
2016-Jun-15 13:32N 53°55' E 014°17'0 0.0
2016-Jun-15 12:32N 53°55' E 014°17'0 0.0
2016-Jun-15 11:32N 53°55' E 014°17'0 0.0
2016-Jun-15 10:32N 53°55' E 014°17'0 0.0
2016-Jun-15 09:32N 53°55' E 014°17'0 0.0
2016-Jun-15 08:32N 53°55' E 014°17'0 0.0
2016-Jun-15 07:32N 53°55' E 014°17'0 0.0
2016-Jun-15 06:32N 53°55' E 014°17'0 0.0
2016-Jun-15 05:32N 53°55' E 014°17'0 0.0
2016-Jun-15 04:32N 53°55' E 014°17'0 0.0
2016-Jun-15 03:32N 53°55' E 014°17'0 0.0
2016-Jun-15 02:32N 53°55' E 014°17'0 0.0
2016-Jun-15 01:32N 53°55' E 014°17'0 0.0
2016-Jun-15 00:32N 53°55' E 014°17'0 0.0
2016-Jun-14 23:32N 53°55' E 014°17'0 0.0
2016-Jun-14 22:32N 53°55' E 014°17'0 0.0
2016-Jun-14 21:32N 53°55' E 014°17'0 0.0
2016-Jun-14 20:32N 53°55' E 014°17'0 0.0
2016-Jun-14 19:32N 53°55' E 014°17'0 0.0
2016-Jun-14 18:32N 53°55' E 014°17'0 0.0
2016-Jun-14 17:32N 53°55' E 014°17'0 0.0
2016-Jun-14 16:32N 53°55' E 014°17'0 0.0
2016-Jun-14 15:32N 53°55' E 014°17'0 0.0
2016-Jun-14 14:32N 53°55' E 014°17'0 0.0
2016-Jun-14 13:32N 53°55' E 014°17'0 0.0
2016-Jun-14 12:32N 53°55' E 014°17'0 0.0
2016-Jun-14 11:32N 53°55' E 014°17'0 0.0
2016-Jun-14 10:32N 53°55' E 014°17'0 0.0
2016-Jun-14 09:32N 53°55' E 014°17'0 0.2
2016-Jun-14 08:33N 53°55' E 014°16'5 5.1
2016-Jun-14 07:33N 53°50' E 014°19'19 9.4
2016-Jun-14 05:33N 53°34' E 014°36'7 6.5
2016-Jun-14 04:33N 53°27' E 014°36'  
Track history (hours):
 
Tides and Currents Weather Stations Pressure Air Temp Water Temp Dewpoint Dewpoint Depression Visibility Wind Speed Wind Dir Waves Ship Positions

Rysy

Last reported at 2016-Jun-24 04:33 UTC. Time now 2016-Jun-25 10:37 UTC.
Position N 49°48' W 003°23'.

Length 229 m; draft 12.8 m.

Type: Cargo ship. MMSI: 311051200.

Date/timePositionNaut miles runAvg speedWind from/ knotsBaromVisibWave heightAir tempDewpointWater temp
2016-Jun-24 04:33N 49°48' W 003°23'1413.7
2016-Jun-24 03:33N 49°55' W 003°04'1413.9
2016-Jun-24 02:33N 50°00' W 002°44'4011.5
2016-Jun-23 23:06N 50°11' W 001°45'14 8.6
2016-Jun-23 21:30N 50°15' W 001°24'9 8.9
2016-Jun-23 20:32N 50°17' W 001°11'1411.1
2016-Jun-23 19:14N 50°21' W 000°49'1512.9
2016-Jun-23 18:05N 50°25' W 000°27'713.5
2016-Jun-23 17:33N 50°27' W 000°16'1413.6
2016-Jun-23 16:33N 50°31' E 000°04'1313.1
2016-Jun-23 15:33N 50°34' E 000°24'3711.6
2016-Jun-23 12:21N 50°56' E 001°12'911.2
2016-Jun-23 11:33N 51°02' E 001°23'1313.3
2016-Jun-23 10:33N 51°09' E 001°40'1514.6
2016-Jun-23 09:34N 51°22' E 001°52'1413.7
2016-Jun-23 08:34N 51°33' E 002°05'1313.0
2016-Jun-23 07:33N 51°43' E 002°19'11611.4
2016-Jun-22 21:21N 53°30' E 003°34'5711.2
2016-Jun-22 16:15N 54°13' E 004°36'1211.9
2016-Jun-22 15:17N 54°23' E 004°47'21311.8
2016-Jun-21 21:15N 57°19' E 008°20'910.5
2016-Jun-21 20:25N 57°23' E 008°34'2010.4
2016-Jun-21 18:32N 57°36' E 009°02'1010.1
2016-Jun-21 17:34N 57°40' E 009°19'1010.3
2016-Jun-21 16:34N 57°43' E 009°37'1110.7
2016-Jun-21 15:34N 57°46' E 009°56'1110.6
2016-Jun-21 14:33N 57°48' E 010°16'1010.1
2016-Jun-21 13:33N 57°48' E 010°35'7 7.1
2016-Jun-21 12:34N 57°45' E 010°47'5 4.3
2016-Jun-21 11:24N 57°41' E 010°41'0 0.0
2016-Jun-21 09:12N 57°41' E 010°40'0 0.0
2016-Jun-21 06:33N 57°41' E 010°40'0 0.0
2016-Jun-21 04:27N 57°41' E 010°40'0 0.1
2016-Jun-21 03:33N 57°41' E 010°41'5 5.4
2016-Jun-21 02:34N 57°41' E 010°50'1110.8
2016-Jun-21 01:34N 57°36' E 011°09'1211.6
2016-Jun-21 00:33N 57°28' E 011°25'1211.8
2016-Jun-20 23:34N 57°18' E 011°33'1212.0
2016-Jun-20 22:33N 57°06' E 011°40'1111.4
2016-Jun-20 21:33N 56°55' E 011°47'1111.1
2016-Jun-20 20:33N 56°45' E 011°53'1211.9
2016-Jun-20 19:32N 56°34' E 011°41'2510.7
2016-Jun-20 17:12N 56°19' E 011°06'6511.5
2016-Jun-20 11:33N 55°14' E 011°06'1211.6
2016-Jun-20 10:33N 55°03' E 010°60'1211.9
2016-Jun-20 09:33N 54°53' E 010°50'1211.8
2016-Jun-20 08:34N 54°41' E 010°47'9 9.5
2016-Jun-20 07:33N 54°36' E 011°01'1010.0
2016-Jun-20 06:33N 54°34' E 011°18'1110.7
2016-Jun-20 05:34N 54°29' E 011°34'1010.1
2016-Jun-20 04:33N 54°26' E 011°51'1110.6
2016-Jun-20 03:33N 54°26' E 012°09'1111.0
2016-Jun-20 02:33N 54°36' E 012°17'1111.0
2016-Jun-20 01:33N 54°42' E 012°32'2210.8
2016-Jun-19 23:32N 54°46' E 013°10'1311.4
2016-Jun-19 22:26N 54°46' E 013°32'4210.8
2016-Jun-19 18:33N 54°12' E 014°12'10 9.9
2016-Jun-19 17:33N 54°02' E 014°15'7 7.1
2016-Jun-19 16:32N 53°55' E 014°17'0 0.0
2016-Jun-19 15:32N 53°55' E 014°17'0 0.0
2016-Jun-19 14:32N 53°55' E 014°17'0 0.0
2016-Jun-19 13:32N 53°55' E 014°17'0 0.0
2016-Jun-19 12:32N 53°55' E 014°17'0 0.0
2016-Jun-19 11:32N 53°55' E 014°17'0 0.0
2016-Jun-19 10:32N 53°55' E 014°17'0 0.0
2016-Jun-19 09:32N 53°55' E 014°17'0 0.0
2016-Jun-19 08:32N 53°55' E 014°17'0 0.0
2016-Jun-19 07:32N 53°55' E 014°17'0 0.0
2016-Jun-19 06:29N 53°55' E 014°17'0 0.0
2016-Jun-19 05:32N 53°55' E 014°17'0 0.0
2016-Jun-19 04:32N 53°55' E 014°17'0 0.0
2016-Jun-19 03:32N 53°55' E 014°17'0 0.0
2016-Jun-19 02:32N 53°55' E 014°17'0 0.0
2016-Jun-19 01:32N 53°55' E 014°17'0 0.0
2016-Jun-19 00:32N 53°55' E 014°17'0 0.0
2016-Jun-18 23:32N 53°55' E 014°17'0 0.0
2016-Jun-18 22:32N 53°55' E 014°17'0 0.0
2016-Jun-18 21:32N 53°55' E 014°17'0 0.0
2016-Jun-18 20:32N 53°55' E 014°17'0 0.0
2016-Jun-18 19:32N 53°55' E 014°17'0 0.0
2016-Jun-18 18:32N 53°55' E 014°17'0 0.0
2016-Jun-18 17:32N 53°55' E 014°17'0 0.0
2016-Jun-18 16:32N 53°55' E 014°17'0 0.0
2016-Jun-18 15:32N 53°55' E 014°17'0 0.0
2016-Jun-18 14:32N 53°55' E 014°17'0 0.0
2016-Jun-18 13:32N 53°55' E 014°17'0 0.0
2016-Jun-18 12:32N 53°55' E 014°17'0 0.0
2016-Jun-18 11:32N 53°55' E 014°17'0 0.0
2016-Jun-18 10:32N 53°55' E 014°17'0 0.0
2016-Jun-18 09:32N 53°55' E 014°17'0 0.0
2016-Jun-18 08:32N 53°55' E 014°17'0 0.0
2016-Jun-18 07:32N 53°55' E 014°17'0 0.0
2016-Jun-18 06:32N 53°55' E 014°17'0 0.0
2016-Jun-18 05:32N 53°55' E 014°17'0 0.0
2016-Jun-18 04:29N 53°55' E 014°17'0 0.0
2016-Jun-18 03:32N 53°55' E 014°17'0 0.0
2016-Jun-18 02:32N 53°55' E 014°17'0 0.0
2016-Jun-18 01:32N 53°55' E 014°17'0 0.0
2016-Jun-18 00:32N 53°55' E 014°17'0 0.0
2016-Jun-17 23:32N 53°55' E 014°17'0 0.0
2016-Jun-17 22:32N 53°55' E 014°17'0 0.0
2016-Jun-17 21:32N 53°55' E 014°17'0 0.0
2016-Jun-17 20:32N 53°55' E 014°17'0 0.0
2016-Jun-17 19:32N 53°55' E 014°17'0 0.0
2016-Jun-17 18:29N 53°55' E 014°17'0 0.0
2016-Jun-17 17:32N 53°55' E 014°17'0 0.0
2016-Jun-17 16:32N 53°55' E 014°17'0 0.0
2016-Jun-17 15:32N 53°55' E 014°17'0 0.0
2016-Jun-17 14:32N 53°55' E 014°17'0 0.0
2016-Jun-17 13:32N 53°55' E 014°17'0 0.0
2016-Jun-17 12:32N 53°55' E 014°17'0 0.0
2016-Jun-17 11:32N 53°55' E 014°17'0 0.0
2016-Jun-17 10:32N 53°55' E 014°17'0 0.0
2016-Jun-17 09:32N 53°55' E 014°17'0 0.0
2016-Jun-17 08:32N 53°55' E 014°17'0 0.0
2016-Jun-17 07:32N 53°55' E 014°17'0 0.0
2016-Jun-17 06:32N 53°55' E 014°17'0 0.0
2016-Jun-17 05:32N 53°55' E 014°17'0 0.0
2016-Jun-17 04:32N 53°55' E 014°17'0 0.0
2016-Jun-17 03:32N 53°55' E 014°17'0 0.0
2016-Jun-17 02:32N 53°55' E 014°17'0 0.0
2016-Jun-17 01:32N 53°55' E 014°17'0 0.0
2016-Jun-17 00:32N 53°55' E 014°17'0 0.0
2016-Jun-16 23:32N 53°55' E 014°17'0 0.0
2016-Jun-16 22:32N 53°55' E 014°17'0 0.0
2016-Jun-16 21:32N 53°55' E 014°17'0 0.0
2016-Jun-16 20:32N 53°55' E 014°17'0 0.0
2016-Jun-16 19:32N 53°55' E 014°17'0 0.0
2016-Jun-16 18:32N 53°55' E 014°17'0 0.0
2016-Jun-16 17:32N 53°55' E 014°17'0 0.0
2016-Jun-16 16:32N 53°55' E 014°17'0 0.0
2016-Jun-16 15:32N 53°55' E 014°17'0 0.0
2016-Jun-16 14:32N 53°55' E 014°17'0 0.0
2016-Jun-16 13:32N 53°55' E 014°17'0 0.0
2016-Jun-16 12:32N 53°55' E 014°17'0 0.0
2016-Jun-16 11:32N 53°55' E 014°17'0 0.0
2016-Jun-16 10:32N 53°55' E 014°17'0 0.0
2016-Jun-16 09:32N 53°55' E 014°17'0 0.0
2016-Jun-16 08:32N 53°55' E 014°17'0 0.0
2016-Jun-16 07:32N 53°55' E 014°17'0 0.0
2016-Jun-16 06:32N 53°55' E 014°17'0 0.0
2016-Jun-16 05:32N 53°55' E 014°17'0 0.0
2016-Jun-16 04:32N 53°55' E 014°17'0 0.0
2016-Jun-16 03:32N 53°55' E 014°17'0 0.0
2016-Jun-16 02:32N 53°55' E 014°17'0 0.0
2016-Jun-16 01:32N 53°55' E 014°17'0 0.0
2016-Jun-16 00:32N 53°55' E 014°17'0 0.0
2016-Jun-15 23:32N 53°55' E 014°17'0 0.0
2016-Jun-15 22:32N 53°55' E 014°17'0 0.0
2016-Jun-15 21:32N 53°55' E 014°17'0 0.0
2016-Jun-15 20:32N 53°55' E 014°17'0 0.0
2016-Jun-15 19:32N 53°55' E 014°17'0 0.0
2016-Jun-15 18:32N 53°55' E 014°17'0 0.0
2016-Jun-15 17:32N 53°55' E 014°17'0 0.0
2016-Jun-15 16:32N 53°55' E 014°17'0 0.0
2016-Jun-15 15:32N 53°55' E 014°17'0 0.0
2016-Jun-15 14:32N 53°55' E 014°17'0 0.0
2016-Jun-15 13:32N 53°55' E 014°17'0 0.0
2016-Jun-15 12:32N 53°55' E 014°17'0 0.0
2016-Jun-15 11:32N 53°55' E 014°17'0 0.0
2016-Jun-15 10:32N 53°55' E 014°17'0 0.0
2016-Jun-15 09:32N 53°55' E 014°17'0 0.0
2016-Jun-15 08:32N 53°55' E 014°17'0 0.0
2016-Jun-15 07:32N 53°55' E 014°17'0 0.0
2016-Jun-15 06:32N 53°55' E 014°17'0 0.0
2016-Jun-15 05:32N 53°55' E 014°17'0 0.0
2016-Jun-15 04:32N 53°55' E 014°17'0 0.0
2016-Jun-15 03:32N 53°55' E 014°17'0 0.0
2016-Jun-15 02:32N 53°55' E 014°17'0 0.0
2016-Jun-15 01:32N 53°55' E 014°17'0 0.0
2016-Jun-15 00:32N 53°55' E 014°17'0 0.0
2016-Jun-14 23:32N 53°55' E 014°17'0 0.0
2016-Jun-14 22:32N 53°55' E 014°17'0 0.0
2016-Jun-14 21:32N 53°55' E 014°17'0 0.0
2016-Jun-14 20:32N 53°55' E 014°17'0 0.0
2016-Jun-14 19:32N 53°55' E 014°17'0 0.0
2016-Jun-14 18:32N 53°55' E 014°17'0 0.0
2016-Jun-14 17:32N 53°55' E 014°17'0 0.0
2016-Jun-14 16:32N 53°55' E 014°17'0 0.0
2016-Jun-14 15:32N 53°55' E 014°17'0 0.0
2016-Jun-14 14:32N 53°55' E 014°17'0 0.0
2016-Jun-14 13:32N 53°55' E 014°17'0 0.0
2016-Jun-14 12:32N 53°55' E 014°17'0 0.0
2016-Jun-14 11:32N 53°55' E 014°17'0 0.0
2016-Jun-14 10:32N 53°55' E 014°17'0 0.0
2016-Jun-14 09:32N 53°55' E 014°17'0 0.2
2016-Jun-14 08:33N 53°55' E 014°16'5 5.1
2016-Jun-14 07:33N 53°50' E 014°19'19 9.4
2016-Jun-14 05:33N 53°34' E 014°36'7 6.5
2016-Jun-14 04:33N 53°27' E 014°36'  

Dump ship's entire track history